Time;durP1;ratioP1;P1;durP2;ratioP2;P2;SDS_P1;SDS_P2;PMS_P1;PMS_P2;Temp;Humidity;BMP_temperature;BMP_pressure;BME280_temperature;BME280_humidity;BME280_pressure;Samples;Min_cycle;Max_cycle;Signal;HPM_P1;HPM_P2
2024/01/03 00:00:48;;;;;;;10.63;2.45;;;8.90;99.90;;;;;;5058884;28;20040;-74
2024/01/03 00:03:19;;;;;;;10.88;2.30;;;8.90;99.90;;;;;;5045278;28;20121;-73
2024/01/03 00:05:45;;;;;;;9.52;1.70;;;8.80;99.90;;;;;;5059449;28;20056;-81
2024/01/03 00:08:23;;;;;;;11.57;2.45;;;8.80;99.90;;;;;;5067695;28;20409;-79
2024/01/03 00:10:52;;;;;;;6.70;1.60;;;8.80;99.90;;;;;;5081045;28;20052;-78
2024/01/03 00:13:33;;;;;;;9.73;2.47;;;8.80;99.90;;;;;;5060569;28;20048;-77
2024/01/03 00:16:03;;;;;;;12.18;2.35;;;8.70;99.90;;;;;;5063704;28;20075;-80
2024/01/03 00:18:56;;;;;;;11.02;2.50;;;8.70;99.90;;;;;;5069637;28;20509;-80
2024/01/03 00:21:25;;;;;;;10.90;2.50;;;8.70;99.90;;;;;;5072679;28;20086;-79
2024/01/03 00:23:53;;;;;;;11.13;2.20;;;8.60;99.90;;;;;;5053388;28;20047;-74
2024/01/03 00:26:19;;;;;;;11.25;1.90;;;8.60;99.90;;;;;;5082033;28;20044;-73
2024/01/03 00:28:46;;;;;;;11.20;2.15;;;8.60;99.90;;;;;;5077981;28;20185;-73
2024/01/03 00:31:36;;;;;;;12.25;2.83;;;8.60;99.90;;;;;;5070421;28;20044;-75
2024/01/03 00:34:03;;;;;;;11.23;2.22;;;8.60;99.90;;;;;;5089395;28;20106;-73
2024/01/03 00:36:29;;;;;;;9.15;1.75;;;8.60;99.90;;;;;;5062216;28;20055;-73
2024/01/03 00:38:58;;;;;;;9.15;2.15;;;8.60;99.90;;;;;;5067841;28;20036;-75
2024/01/03 00:41:23;;;;;;;17.20;2.65;;;8.50;99.90;;;;;;5072318;28;20036;-74
2024/01/03 00:43:49;;;;;;;10.27;2.17;;;8.50;99.90;;;;;;5080046;28;20040;-72
2024/01/03 00:46:15;;;;;;;16.08;2.97;;;8.50;99.90;;;;;;5074046;28;20608;-73
2024/01/03 00:48:41;;;;;;;15.13;2.63;;;8.50;99.90;;;;;;5073796;28;20132;-74
2024/01/03 00:51:07;;;;;;;12.10;2.65;;;8.50;99.90;;;;;;5057245;28;20039;-72
2024/01/03 00:53:33;;;;;;;11.88;2.97;;;8.50;99.90;;;;;;5072768;28;20044;-73
2024/01/03 00:55:59;;;;;;;13.70;2.65;;;8.50;99.90;;;;;;5064351;28;20051;-73
2024/01/03 00:58:24;;;;;;;12.40;2.92;;;8.50;99.90;;;;;;5058402;28;20040;-73
2024/01/03 01:00:50;;;;;;;14.23;2.42;;;8.40;99.90;;;;;;5064825;28;20102;-73
2024/01/03 01:03:17;;;;;;;12.10;2.72;;;8.40;99.90;;;;;;5084131;28;20052;-73
2024/01/03 01:05:43;;;;;;;13.13;2.83;;;8.40;99.90;;;;;;5056802;28;20649;-72
2024/01/03 01:08:09;;;;;;;13.57;2.70;;;8.40;99.90;;;;;;5059507;28;20127;-74
2024/01/03 01:10:34;;;;;;;12.73;2.50;;;8.30;99.90;;;;;;5082095;28;20050;-73
2024/01/03 01:13:00;;;;;;;16.48;2.78;;;8.30;99.90;;;;;;5087566;28;20040;-73
2024/01/03 01:15:26;;;;;;;13.20;2.88;;;8.30;99.90;;;;;;5073148;28;20044;-73
2024/01/03 01:17:52;;;;;;;13.85;2.80;;;8.30;99.90;;;;;;5070745;28;20058;-74
2024/01/03 01:20:17;;;;;;;11.23;2.58;;;8.30;99.90;;;;;;5082462;28;20445;-73
2024/01/03 01:22:43;;;;;;;9.82;1.80;;;8.30;99.90;;;;;;5055279;28;20073;-74
2024/01/03 01:25:09;;;;;;;11.77;2.33;;;8.40;99.90;;;;;;5073392;28;20487;-74
2024/01/03 01:27:35;;;;;;;9.48;2.15;;;8.30;99.90;;;;;;5070385;28;20040;-74
2024/01/03 01:30:00;;;;;;;10.27;2.00;;;8.30;99.90;;;;;;5057565;28;20032;-76
2024/01/03 01:32:26;;;;;;;10.02;1.73;;;8.30;99.90;;;;;;5061613;28;20146;-74
2024/01/03 01:34:52;;;;;;;6.93;1.55;;;8.30;99.90;;;;;;5072351;28;20403;-77
2024/01/03 01:37:17;;;;;;;9.95;1.75;;;8.30;99.90;;;;;;5066776;28;20040;-76
2024/01/03 01:39:44;;;;;;;14.23;2.40;;;8.40;99.90;;;;;;5061976;28;20328;-74
2024/01/03 01:42:10;;;;;;;12.85;2.03;;;8.40;99.90;;;;;;5065420;28;20044;-74
2024/01/03 01:44:36;;;;;;;14.32;3.00;;;8.40;99.90;;;;;;5080563;28;20069;-74
2024/01/03 01:47:05;;;;;;;9.98;1.80;;;8.50;99.90;;;;;;5074992;28;20028;-73
2024/01/03 01:49:32;;;;;;;14.48;2.70;;;8.40;99.90;;;;;;5084612;28;20039;-75
2024/01/03 01:51:58;;;;;;;10.73;2.30;;;8.40;99.90;;;;;;5067035;28;20135;-74
2024/01/03 01:54:25;;;;;;;12.80;2.97;;;8.40;99.90;;;;;;5073821;28;20498;-75
2024/01/03 01:56:51;;;;;;;10.35;2.00;;;8.40;99.90;;;;;;5071339;28;20089;-74
2024/01/03 01:59:20;;;;;;;9.48;1.95;;;8.50;99.90;;;;;;5055382;28;20052;-74
2024/01/03 02:01:46;;;;;;;11.07;2.50;;;8.50;99.90;;;;;;5074957;28;20044;-74
2024/01/03 02:04:13;;;;;;;10.40;2.00;;;8.50;99.90;;;;;;5063753;28;20075;-75
2024/01/03 02:06:39;;;;;;;9.10;1.92;;;8.50;99.90;;;;;;5074994;28;20066;-75
2024/01/03 02:09:05;;;;;;;8.35;2.00;;;8.50;99.90;;;;;;5078589;28;20043;-73
2024/01/03 02:11:31;;;;;;;9.65;1.70;;;8.60;99.90;;;;;;5062881;28;20054;-74
2024/01/03 02:13:57;;;;;;;9.10;1.75;;;8.60;99.90;;;;;;5071134;28;20043;-73
2024/01/03 02:16:22;;;;;;;5.80;1.75;;;8.60;99.90;;;;;;5074555;28;20095;-73
2024/01/03 02:18:49;;;;;;;8.20;1.45;;;8.70;99.90;;;;;;5060113;28;20514;-75
2024/01/03 02:21:16;;;;;;;6.80;1.98;;;8.70;99.90;;;;;;5055544;28;20126;-74
2024/01/03 02:23:42;;;;;;;6.90;1.52;;;8.80;99.90;;;;;;5074414;28;20626;-74
2024/01/03 02:26:09;;;;;;;6.88;1.27;;;8.80;99.90;;;;;;5061873;28;20467;-74
2024/01/03 02:28:35;;;;;;;6.43;1.20;;;8.80;99.90;;;;;;5059342;28;20059;-74
2024/01/03 02:31:01;;;;;;;7.28;1.90;;;8.90;99.90;;;;;;5065120;28;20120;-74
2024/01/03 02:33:27;;;;;;;6.97;1.48;;;8.90;99.90;;;;;;5071027;28;20131;-76
2024/01/03 02:35:52;;;;;;;5.60;1.25;;;8.90;99.90;;;;;;5060974;28;20045;-75
2024/01/03 02:38:19;;;;;;;5.05;1.30;;;9.00;99.90;;;;;;5054697;28;20039;-75
2024/01/03 02:40:44;;;;;;;4.35;1.00;;;9.00;99.90;;;;;;5056504;28;20043;-74
2024/01/03 02:43:11;;;;;;;5.28;1.02;;;9.10;99.90;;;;;;5059712;28;20583;-74
2024/01/03 02:45:37;;;;;;;8.68;1.63;;;9.10;99.90;;;;;;5066390;28;20153;-74
2024/01/03 02:48:03;;;;;;;5.18;1.10;;;9.10;99.90;;;;;;5054583;28;20040;-75
2024/01/03 02:50:28;;;;;;;5.50;1.10;;;9.20;99.90;;;;;;5074882;28;20048;-74
2024/01/03 02:52:54;;;;;;;6.95;1.95;;;9.10;99.90;;;;;;5066254;28;20522;-75
2024/01/03 02:55:21;;;;;;;7.82;1.45;;;9.20;99.90;;;;;;5068347;28;20062;-77
2024/01/03 02:57:50;;;;;;;6.15;1.08;;;9.20;99.90;;;;;;5068981;28;20070;-74
2024/01/03 03:00:16;;;;;;;5.05;1.33;;;9.20;99.90;;;;;;5074579;28;20055;-75
2024/01/03 03:02:42;;;;;;;5.28;0.90;;;9.20;99.90;;;;;;5077007;28;20067;-75
2024/01/03 03:05:08;;;;;;;7.22;1.60;;;9.10;99.90;;;;;;5084044;28;20074;-74
2024/01/03 03:07:33;;;;;;;4.53;1.00;;;9.10;99.90;;;;;;5069176;28;20044;-74
2024/01/03 03:09:59;;;;;;;6.22;0.93;;;9.00;99.90;;;;;;5068066;28;20051;-76
2024/01/03 03:12:25;;;;;;;3.42;0.60;;;9.00;99.90;;;;;;5066235;28;20052;-75
2024/01/03 03:14:51;;;;;;;3.55;0.70;;;8.90;99.90;;;;;;5063017;28;20075;-74
2024/01/03 03:17:17;;;;;;;2.80;0.60;;;8.90;99.90;;;;;;5082854;28;20070;-75
2024/01/03 03:19:46;;;;;;;2.22;0.52;;;8.90;99.90;;;;;;5052617;28;20101;-75
2024/01/03 03:22:11;;;;;;;6.00;0.77;;;8.90;99.90;;;;;;5064289;28;20051;-74
2024/01/03 03:24:37;;;;;;;4.35;0.73;;;8.80;99.90;;;;;;5072536;28;20048;-74
2024/01/03 03:27:03;;;;;;;4.93;0.70;;;8.80;99.90;;;;;;5078178;28;20043;-75
2024/01/03 03:29:29;;;;;;;3.08;0.65;;;8.80;99.90;;;;;;5072036;28;20040;-75
2024/01/03 03:31:54;;;;;;;2.67;0.63;;;8.70;99.90;;;;;;5078887;28;20051;-74
2024/01/03 03:34:20;;;;;;;3.08;0.73;;;8.60;99.90;;;;;;5024958;28;1283341;-74
2024/01/03 03:36:47;;;;;;;1.63;0.52;;;8.60;99.90;;;;;;5071970;28;20072;-74
2024/01/03 03:39:13;;;;;;;5.28;0.90;;;8.60;99.90;;;;;;5079932;28;20096;-74
2024/01/03 03:41:39;;;;;;;5.38;0.88;;;8.50;99.90;;;;;;5076745;28;20040;-74
2024/01/03 03:44:05;;;;;;;3.10;0.70;;;8.60;99.90;;;;;;5070047;28;20040;-75
2024/01/03 03:46:30;;;;;;;5.55;1.30;;;8.50;99.90;;;;;;5058259;28;20455;-74
2024/01/03 03:48:56;;;;;;;3.72;0.80;;;8.50;99.90;;;;;;5077242;28;20122;-74
2024/01/03 03:51:22;;;;;;;4.57;0.80;;;8.50;99.90;;;;;;5071183;28;20068;-74
2024/01/03 03:53:51;;;;;;;3.25;0.70;;;8.50;99.90;;;;;;5067980;28;20540;-74
2024/01/03 03:56:30;;;;;;;4.55;1.30;;;8.50;99.90;;;;;;5063022;28;20082;-74
2024/01/03 03:58:58;;;;;;;5.72;1.02;;;8.50;99.90;;;;;;5054237;28;20537;-73
2024/01/03 04:01:24;;;;;;;4.85;0.70;;;8.50;99.90;;;;;;5067155;28;20040;-73
2024/01/03 04:03:50;;;;;;;2.80;1.00;;;8.50;99.90;;;;;;5070156;28;20101;-73
2024/01/03 04:06:17;;;;;;;4.30;0.65;;;8.40;99.90;;;;;;5060428;28;20083;-74
2024/01/03 04:08:43;;;;;;;2.95;0.70;;;8.50;99.90;;;;;;5071403;28;20051;-72
2024/01/03 04:11:10;;;;;;;3.83;0.98;;;8.40;99.90;;;;;;5072426;28;20104;-73
2024/01/03 04:13:38;;;;;;;4.72;0.73;;;8.40;99.90;;;;;;5076366;28;20130;-75
2024/01/03 04:16:08;;;;;;;7.68;1.27;;;8.40;99.90;;;;;;5068978;28;20068;-75
2024/01/03 04:18:34;;;;;;;10.32;2.05;;;8.40;99.90;;;;;;5080370;28;20040;-74
2024/01/03 04:21:01;;;;;;;15.77;2.75;;;8.40;99.90;;;;;;5069293;28;20044;-74
2024/01/03 04:23:27;;;;;;;19.27;3.80;;;8.50;99.90;;;;;;5081264;28;20039;-74
2024/01/03 04:25:53;;;;;;;23.63;4.10;;;8.50;99.90;;;;;;5079921;28;20109;-74
2024/01/03 04:28:19;;;;;;;25.73;5.05;;;8.60;99.90;;;;;;5071192;28;20048;-74
2024/01/03 04:30:45;;;;;;;24.92;5.05;;;8.60;99.90;;;;;;5074928;28;20039;-74
2024/01/03 04:33:10;;;;;;;30.08;4.95;;;8.70;99.90;;;;;;5052893;28;20102;-74
2024/01/03 04:35:36;;;;;;;31.92;7.40;;;8.70;99.90;;;;;;5072364;28;20459;-75
2024/01/03 04:38:03;;;;;;;27.73;5.30;;;8.80;99.90;;;;;;5054763;28;20036;-74
2024/01/03 04:40:32;;;;;;;29.15;5.00;;;8.70;99.90;;;;;;5066396;28;20101;-75
2024/01/03 04:42:59;;;;;;;27.35;6.00;;;8.80;99.90;;;;;;5056006;28;20120;-74
2024/01/03 04:45:25;;;;;;;23.10;6.07;;;8.90;99.90;;;;;;5064615;28;20452;-75
2024/01/03 04:47:53;;;;;;;26.52;5.30;;;8.90;99.90;;;;;;5064851;28;20071;-74
2024/01/03 04:50:19;;;;;;;24.13;5.00;;;8.90;99.90;;;;;;5074560;28;20071;-74
2024/01/03 04:52:44;;;;;;;21.88;5.00;;;9.00;99.90;;;;;;5063008;28;20036;-74
2024/01/03 04:55:10;;;;;;;29.17;6.32;;;9.00;99.90;;;;;;5078013;28;20104;-74
2024/01/03 04:57:36;;;;;;;26.90;5.35;;;9.00;99.90;;;;;;5078032;28;20093;-74
2024/01/03 05:00:05;;;;;;;24.15;4.63;;;9.00;99.90;;;;;;5076714;28;20377;-75
2024/01/03 05:02:31;;;;;;;22.35;5.05;;;9.10;99.90;;;;;;5070205;28;21298;-74
2024/01/03 05:04:57;;;;;;;24.25;5.35;;;9.10;99.90;;;;;;5083673;28;20044;-74
2024/01/03 05:07:24;;;;;;;32.90;5.35;;;9.10;99.90;;;;;;5089730;28;20046;-74
2024/01/03 05:09:49;;;;;;;28.15;5.50;;;9.10;99.90;;;;;;5073362;28;20183;-81
2024/01/03 05:12:15;;;;;;;25.38;5.43;;;9.20;99.90;;;;;;5071339;28;21822;-83
2024/01/03 05:14:41;;;;;;;23.33;5.68;;;9.20;99.90;;;;;;5077446;28;20043;-81
2024/01/03 05:17:07;;;;;;;24.65;5.63;;;9.20;99.90;;;;;;5085775;28;20522;-81
2024/01/03 05:19:32;;;;;;;25.52;4.95;;;9.20;99.90;;;;;;5085415;28;20058;-81
2024/01/03 05:21:58;;;;;;;20.08;4.97;;;9.30;99.90;;;;;;5069573;27;20405;-82
2024/01/03 05:24:24;;;;;;;23.10;4.93;;;9.30;99.90;;;;;;5092377;27;20508;-81
2024/01/03 05:26:50;;;;;;;22.95;5.32;;;9.30;99.90;;;;;;5086199;28;20542;-82
2024/01/03 05:29:16;;;;;;;25.23;4.90;;;9.30;99.90;;;;;;5096876;27;20044;-82
2024/01/03 05:31:42;;;;;;;21.05;4.22;;;9.30;99.90;;;;;;5091024;27;20031;-75
2024/01/03 05:34:09;;;;;;;15.82;4.03;;;9.30;99.90;;;;;;5090526;27;20052;-75
2024/01/03 05:36:34;;;;;;;22.23;4.72;;;9.30;99.90;;;;;;5085063;28;20051;-74
2024/01/03 05:39:00;;;;;;;23.40;5.82;;;9.40;99.90;;;;;;5095686;28;20040;-75
2024/01/03 05:41:26;;;;;;;21.83;4.45;;;9.40;99.90;;;;;;5086787;28;20036;-75
2024/01/03 05:43:51;;;;;;;20.83;4.13;;;9.40;99.90;;;;;;5089600;28;20036;-74
2024/01/03 05:46:17;;;;;;;22.42;4.30;;;9.40;99.90;;;;;;5090972;27;20883;-75
2024/01/03 05:48:43;;;;;;;22.27;4.75;;;9.40;99.90;;;;;;5092664;27;20050;-75
2024/01/03 05:51:10;;;;;;;26.15;4.50;;;9.40;99.90;;;;;;5095740;27;20386;-75
2024/01/03 05:53:36;;;;;;;24.17;5.13;;;9.40;99.90;;;;;;5083427;28;20078;-74
2024/01/03 05:56:01;;;;;;;24.50;4.10;;;9.40;99.90;;;;;;5087759;28;20706;-75
2024/01/03 05:58:27;;;;;;;25.08;4.75;;;9.40;99.90;;;;;;5089731;28;20047;-75
2024/01/03 06:00:53;;;;;;;19.55;4.63;;;9.40;99.90;;;;;;5095887;28;20032;-75
2024/01/03 06:03:19;;;;;;;19.80;4.18;;;9.40;99.90;;;;;;5074081;27;20139;-75
2024/01/03 06:05:44;;;;;;;23.25;4.55;;;9.40;99.90;;;;;;5089897;28;20128;-76
2024/01/03 06:08:10;;;;;;;19.30;4.63;;;9.40;99.90;;;;;;5090271;27;20078;-82
2024/01/03 06:10:36;;;;;;;23.17;4.97;;;9.50;99.90;;;;;;5077754;27;20077;-79
2024/01/03 06:13:02;;;;;;;22.75;4.07;;;9.40;99.90;;;;;;5095331;27;20047;-80
2024/01/03 06:15:28;;;;;;;24.65;4.82;;;9.40;99.90;;;;;;5087132;28;20122;-79
2024/01/03 06:17:54;;;;;;;22.45;4.55;;;9.40;99.90;;;;;;5090100;28;20071;-80
2024/01/03 06:20:19;;;;;;;19.95;4.32;;;9.30;99.90;;;;;;5091827;27;20073;-79
2024/01/03 06:22:45;;;;;;;23.25;6.00;;;9.30;99.90;;;;;;5071054;27;20697;-80
2024/01/03 06:25:11;;;;;;;15.73;3.42;;;9.30;99.90;;;;;;5097795;27;20039;-81
2024/01/03 06:27:37;;;;;;;15.70;3.97;;;9.30;99.90;;;;;;5083182;28;20426;-80
2024/01/03 06:30:03;;;;;;;11.82;2.45;;;9.20;99.90;;;;;;5082555;27;20043;-81
2024/01/03 06:32:28;;;;;;;9.02;1.58;;;9.30;99.90;;;;;;5077851;27;20067;-80
2024/01/03 06:34:54;;;;;;;10.15;1.88;;;9.30;99.90;;;;;;5071846;28;20040;-79
2024/01/03 06:37:20;;;;;;;7.97;2.50;;;9.40;99.90;;;;;;5098290;27;20054;-80
2024/01/03 06:39:46;;;;;;;12.45;2.25;;;9.30;99.90;;;;;;5086874;28;20046;-80
2024/01/03 06:42:11;;;;;;;11.80;2.38;;;9.30;99.90;;;;;;5078043;27;20487;-74
2024/01/03 06:44:37;;;;;;;14.60;3.15;;;9.40;99.90;;;;;;5087421;28;20059;-74
2024/01/03 06:47:03;;;;;;;16.08;2.90;;;9.50;99.90;;;;;;5081696;28;20053;-74
2024/01/03 06:49:29;;;;;;;18.33;3.70;;;9.40;99.90;;;;;;5071995;28;20048;-74
2024/01/03 06:51:57;;;;;;;18.67;3.83;;;9.50;99.90;;;;;;5078590;28;20040;-74
2024/01/03 06:54:22;;;;;;;15.85;3.92;;;9.40;99.90;;;;;;5087691;28;20522;-74
2024/01/03 06:56:48;;;;;;;23.10;4.18;;;9.40;99.90;;;;;;5074602;28;20153;-75
2024/01/03 06:59:14;;;;;;;18.73;4.45;;;9.50;99.90;;;;;;5084208;27;20039;-74
2024/01/03 07:01:40;;;;;;;19.80;3.95;;;9.50;99.90;;;;;;5071903;28;20063;-75
2024/01/03 07:04:05;;;;;;;20.52;3.67;;;9.40;99.90;;;;;;5096409;28;20566;-75
2024/01/03 07:06:31;;;;;;;17.95;3.90;;;9.50;99.90;;;;;;5092971;27;20469;-74
2024/01/03 07:08:57;;;;;;;18.10;3.60;;;9.40;99.90;;;;;;5078725;28;20498;-73
2024/01/03 07:11:23;;;;;;;15.18;3.45;;;9.40;99.90;;;;;;5091470;27;20031;-74
2024/01/03 07:13:48;;;;;;;21.60;4.10;;;9.30;99.90;;;;;;5080020;28;20054;-73
2024/01/03 07:16:15;;;;;;;22.52;4.75;;;9.20;99.90;;;;;;5071923;28;20035;-73
2024/01/03 07:18:42;;;;;;;23.08;4.10;;;9.20;99.90;;;;;;5085434;28;20104;-74
2024/01/03 07:21:08;;;;;;;19.77;4.78;;;9.10;99.90;;;;;;5070612;27;20106;-73
2024/01/03 07:23:34;;;;;;;21.63;4.97;;;9.10;99.90;;;;;;5069587;28;20043;-74
2024/01/03 07:25:59;;;;;;;17.00;4.03;;;9.10;99.90;;;;;;5075223;28;20031;-74
2024/01/03 07:28:25;;;;;;;20.98;3.97;;;9.10;99.90;;;;;;5087707;27;20513;-73
2024/01/03 07:30:51;;;;;;;21.65;4.03;;;9.00;99.90;;;;;;5063150;28;20051;-74
2024/01/03 07:33:17;;;;;;;15.52;3.22;;;9.00;99.90;;;;;;5085665;27;20062;-74
2024/01/03 07:35:43;;;;;;;16.48;3.55;;;9.00;99.90;;;;;;5086092;28;20054;-74
2024/01/03 07:38:09;;;;;;;12.50;2.88;;;9.10;99.90;;;;;;5087349;27;20036;-74
2024/01/03 07:40:35;;;;;;;10.82;2.33;;;9.00;99.90;;;;;;5068121;28;20036;-74
2024/01/03 07:43:01;;;;;;;14.48;2.67;;;9.10;99.90;;;;;;5087204;28;20040;-74
2024/01/03 07:45:27;;;;;;;9.98;2.03;;;9.10;99.90;;;;;;5094802;27;20050;-74
2024/01/03 07:47:52;;;;;;;12.90;2.03;;;9.00;99.90;;;;;;5067653;28;20047;-73
2024/01/03 07:50:18;;;;;;;9.05;1.85;;;9.10;99.90;;;;;;5086517;28;20058;-73
2024/01/03 07:52:44;;;;;;;10.77;2.22;;;8.90;99.90;;;;;;5078865;27;20040;-73
2024/01/03 07:55:11;;;;;;;10.95;2.30;;;8.80;99.90;;;;;;5097765;28;20038;-74
2024/01/03 07:57:37;;;;;;;13.35;2.47;;;8.70;99.90;;;;;;5087023;28;20055;-73
2024/01/03 08:00:03;;;;;;;17.48;3.50;;;8.70;99.90;;;;;;5083106;27;20575;-74
2024/01/03 08:02:29;;;;;;;19.73;3.55;;;8.60;99.90;;;;;;5082471;28;20126;-80
2024/01/03 08:04:55;;;;;;;17.42;2.95;;;8.60;99.90;;;;;;5089874;27;20184;-80
2024/01/03 08:07:21;;;;;;;17.13;3.28;;;8.60;99.90;;;;;;5075947;28;20040;-80
2024/01/03 08:09:47;;;;;;;14.90;3.00;;;8.60;99.90;;;;;;5078159;28;20035;-80
2024/01/03 08:12:13;;;;;;;16.90;3.13;;;8.60;99.90;;;;;;5085433;28;20070;-79
2024/01/03 08:14:39;;;;;;;18.77;3.72;;;8.60;99.90;;;;;;5087780;28;20482;-79
2024/01/03 08:17:05;;;;;;;15.13;2.90;;;8.60;99.90;;;;;;5064544;28;20032;-79
2024/01/03 08:19:31;;;;;;;15.77;3.35;;;8.60;99.90;;;;;;5092721;28;20089;-80
2024/01/03 08:21:57;;;;;;;18.48;3.13;;;8.60;99.90;;;;;;5084350;28;20375;-80
2024/01/03 08:24:23;;;;;;;18.00;3.33;;;8.60;99.90;;;;;;5082310;28;20486;-79
2024/01/03 08:26:49;;;;;;;16.95;3.20;;;8.60;99.90;;;;;;5071369;28;20058;-79
2024/01/03 08:29:15;;;;;;;20.50;3.30;;;8.60;99.90;;;;;;5070790;28;20046;-79
2024/01/03 08:31:40;;;;;;;18.73;2.92;;;8.60;99.90;;;;;;5085446;28;20051;-79
2024/01/03 08:34:06;;;;;;;14.98;3.03;;;8.60;99.90;;;;;;5086621;28;20051;-79
2024/01/03 08:36:40;;;;;;;17.13;3.28;;;8.60;99.90;;;;;;5069280;28;20048;-79
2024/01/03 08:39:07;;;;;;;24.52;4.53;;;8.70;99.90;;;;;;5088171;28;20398;-79
2024/01/03 08:41:33;;;;;;;18.35;2.80;;;8.60;99.90;;;;;;5077819;28;20673;-79
2024/01/03 08:43:59;;;;;;;15.52;3.65;;;8.60;99.90;;;;;;5085270;28;20039;-79
2024/01/03 08:46:30;;;;;;;16.08;3.30;;;8.60;99.90;;;;;;5064932;28;20108;-80
2024/01/03 08:48:57;;;;;;;14.52;2.67;;;8.70;99.90;;;;;;5066299;28;20043;-80
2024/01/03 08:51:23;;;;;;;15.60;3.38;;;8.70;99.90;;;;;;5083336;28;20050;-79
2024/01/03 08:53:49;;;;;;;12.32;2.75;;;8.80;99.90;;;;;;5085254;28;20048;-79
2024/01/03 08:56:17;;;;;;;17.40;2.88;;;8.80;99.90;;;;;;5089192;28;20428;-74
2024/01/03 08:58:44;;;;;;;18.90;3.20;;;8.80;99.90;;;;;;5089298;27;20059;-73
2024/01/03 09:01:16;;;;;;;12.60;2.42;;;8.80;99.90;;;;;;5087230;28;20043;-74
2024/01/03 09:03:46;;;;;;;16.88;2.72;;;8.90;99.90;;;;;;5078404;28;20093;-74
2024/01/03 09:06:20;;;;;;;16.50;3.03;;;8.90;99.90;;;;;;5074209;27;20447;-74
2024/01/03 09:08:50;;;;;;;14.45;2.78;;;8.90;99.90;;;;;;5091877;28;20070;-74
2024/01/03 09:11:18;;;;;;;14.35;3.03;;;8.90;99.90;;;;;;5074799;28;20043;-75
2024/01/03 09:13:48;;;;;;;13.95;2.25;;;9.00;99.90;;;;;;5072247;28;20032;-75
2024/01/03 09:16:16;;;;;;;13.80;3.00;;;9.00;99.90;;;;;;5097336;27;20515;-75
2024/01/03 09:18:42;;;;;;;14.27;3.15;;;9.00;99.90;;;;;;5084788;28;20048;-75
2024/01/03 09:21:09;;;;;;;17.60;4.10;;;9.10;99.90;;;;;;5093167;27;20032;-74
2024/01/03 09:23:36;;;;;;;20.55;3.38;;;9.10;99.90;;;;;;5089147;28;20105;-74
2024/01/03 09:26:04;;;;;;;13.38;3.05;;;9.10;99.90;;;;;;5086040;28;20067;-74
2024/01/03 09:28:30;;;;;;;14.73;3.15;;;9.10;99.90;;;;;;5086922;27;20291;-75
2024/01/03 09:30:56;;;;;;;12.57;2.70;;;9.10;99.90;;;;;;5085575;27;20039;-74
2024/01/03 09:33:23;;;;;;;17.70;3.60;;;9.20;99.90;;;;;;5079381;27;20043;-75
2024/01/03 09:35:49;;;;;;;14.90;2.95;;;9.20;99.90;;;;;;5090808;27;20057;-74
2024/01/03 09:38:15;;;;;;;16.75;2.88;;;9.20;99.90;;;;;;5084277;28;20039;-74
2024/01/03 09:40:41;;;;;;;15.32;3.03;;;9.30;99.90;;;;;;5064801;28;21180;-74
2024/01/03 09:43:08;;;;;;;11.82;3.13;;;9.30;99.90;;;;;;5077959;28;20028;-74
2024/01/03 09:45:34;;;;;;;12.27;3.17;;;9.30;99.90;;;;;;5073573;28;20052;-75
2024/01/03 09:48:00;;;;;;;13.50;2.90;;;9.30;99.90;;;;;;5078342;28;20501;-75
2024/01/03 09:50:26;;;;;;;12.25;2.47;;;9.30;99.90;;;;;;5069125;28;20046;-74
2024/01/03 09:52:55;;;;;;;10.95;2.60;;;9.30;99.90;;;;;;5076441;28;20075;-74
2024/01/03 09:55:21;;;;;;;12.95;2.78;;;9.40;99.90;;;;;;5067211;28;20166;-75
2024/01/03 09:57:49;;;;;;;9.15;2.45;;;9.40;99.90;;;;;;5082432;28;20146;-74
2024/01/03 10:00:18;;;;;;;12.93;3.13;;;9.40;99.90;;;;;;5063794;28;20071;-73
2024/01/03 10:02:47;;;;;;;12.10;2.33;;;9.50;99.90;;;;;;5079044;28;20131;-74
2024/01/03 10:05:20;;;;;;;13.40;2.50;;;9.40;99.90;;;;;;5053271;28;20040;-74
2024/01/03 10:07:46;;;;;;;12.07;2.63;;;9.50;99.90;;;;;;5076528;28;20044;-74
2024/01/03 10:10:12;;;;;;;8.88;2.03;;;9.60;99.90;;;;;;5083191;28;20131;-74
2024/01/03 10:12:37;;;;;;;12.48;2.38;;;9.50;99.90;;;;;;5065982;27;20119;-73
2024/01/03 10:15:17;;;;;;;9.80;2.20;;;9.50;99.90;;;;;;5084071;28;20047;-73
2024/01/03 10:17:43;;;;;;;8.98;2.00;;;9.60;99.90;;;;;;5082488;27;20047;-74
2024/01/03 10:20:27;;;;;;;8.68;2.05;;;9.60;99.90;;;;;;5069843;27;20922;-73
2024/01/03 10:23:18;;;;;;;8.95;2.25;;;9.70;99.90;;;;;;5079511;27;20039;-73
2024/01/03 10:25:44;;;;;;;11.10;2.15;;;9.70;99.90;;;;;;5088394;27;20047;-83
2024/01/03 10:28:16;;;;;;;14.40;2.55;;;9.70;99.90;;;;;;5075641;28;20040;-81
2024/01/03 10:30:42;;;;;;;11.00;2.60;;;9.80;99.90;;;;;;5077526;28;20040;-74
2024/01/03 10:33:09;;;;;;;10.90;2.45;;;9.70;99.90;;;;;;5067328;28;20112;-74
2024/01/03 10:35:37;;;;;;;11.57;2.92;;;9.80;99.90;;;;;;5065476;27;20060;-75
2024/01/03 10:38:04;;;;;;;11.50;3.45;;;9.80;99.90;;;;;;5084406;28;20490;-74
2024/01/03 10:40:32;;;;;;;11.50;2.30;;;9.80;99.90;;;;;;5080499;28;20863;-82
2024/01/03 10:42:58;;;;;;;15.35;2.80;;;9.90;99.90;;;;;;5078114;28;20390;-82
2024/01/03 10:45:25;;;;;;;14.30;3.00;;;9.90;99.90;;;;;;5061788;28;20052;-83
2024/01/03 10:47:52;;;;;;;17.13;4.00;;;9.90;99.90;;;;;;5063215;28;20044;-83
2024/01/03 10:50:19;;;;;;;17.00;3.50;;;9.80;99.90;;;;;;5065923;28;20048;-81
2024/01/03 10:52:45;;;;;;;20.98;3.88;;;9.80;99.90;;;;;;5067559;28;20032;-81
2024/01/03 10:55:28;;;;;;;18.45;4.45;;;9.80;99.90;;;;;;5061857;28;20115;-81
2024/01/03 10:58:00;;;;;;;19.23;3.97;;;9.80;99.90;;;;;;5058816;28;20047;-81
2024/01/03 11:00:50;;;;;;;21.83;3.88;;;9.70;99.90;;;;;;5069145;28;20128;-81
2024/01/03 11:03:42;;;;;;;16.20;3.42;;;9.70;99.90;;;;;;5082798;28;20502;-82
2024/01/03 11:06:26;;;;;;;15.95;4.05;;;9.70;99.90;;;;;;5070527;28;20501;-83
2024/01/03 11:08:54;;;;;;;17.40;3.85;;;9.80;99.90;;;;;;5069366;28;20042;-82
2024/01/03 11:11:40;;;;;;;15.63;3.33;;;9.80;99.90;;;;;;5070465;28;20533;-84
2024/01/03 11:14:18;;;;;;;15.55;3.42;;;9.80;99.90;;;;;;5068284;28;20044;-83
2024/01/03 11:16:53;;;;;;;17.52;3.63;;;9.90;99.90;;;;;;5070255;28;20059;-82
2024/01/03 11:19:30;;;;;;;14.50;3.63;;;10.00;99.90;;;;;;5082608;28;20440;-82
2024/01/03 11:22:02;;;;;;;18.50;3.85;;;10.00;99.90;;;;;;5076490;28;20044;-83
2024/01/03 11:24:28;;;;;;;13.55;3.15;;;10.10;99.90;;;;;;5064146;28;20391;-82
2024/01/03 11:26:54;;;;;;;20.00;3.70;;;10.10;99.90;;;;;;5079153;28;20056;-83
2024/01/03 11:29:35;;;;;;;16.73;3.90;;;10.10;99.90;;;;;;5073250;28;20052;-81
2024/01/03 11:32:04;;;;;;;21.33;3.95;;;10.10;99.90;;;;;;5074071;28;20060;-82
2024/01/03 11:34:44;;;;;;;19.98;4.28;;;10.10;99.90;;;;;;5071224;28;20048;-82
2024/01/03 11:37:19;;;;;;;22.88;4.45;;;10.10;99.90;;;;;;5071851;28;20048;-82
2024/01/03 11:39:46;;;;;;;16.40;4.50;;;10.10;99.90;;;;;;5058136;28;20052;-82
2024/01/03 11:42:32;;;;;;;17.50;4.45;;;10.10;99.90;;;;;;5060826;28;20051;-82
2024/01/03 11:45:15;;;;;;;20.58;4.22;;;10.10;99.90;;;;;;5059901;28;20052;-82
2024/01/03 11:47:45;;;;;;;17.02;4.25;;;10.10;99.90;;;;;;5080949;28;20428;-82
2024/01/03 11:50:21;;;;;;;21.45;4.72;;;10.00;99.90;;;;;;5071987;28;20094;-83
2024/01/03 11:52:48;;;;;;;20.95;4.60;;;10.00;99.90;;;;;;5072492;28;20056;-81
2024/01/03 11:55:18;;;;;;;19.95;4.80;;;10.00;99.90;;;;;;5055407;28;20083;-82
2024/01/03 11:57:45;;;;;;;25.35;5.53;;;9.90;99.90;;;;;;5064037;28;20052;-80
2024/01/03 12:00:16;;;;;;;29.75;5.90;;;9.90;99.90;;;;;;5068081;28;20044;-73
2024/01/03 12:02:50;;;;;;;;;;;9.90;99.90;;;;;;5078382;28;20495;-74
2024/01/03 12:05:17;;;;;;;20.98;4.20;;;9.80;99.90;;;;;;5067672;28;20371;-73
2024/01/03 12:08:48;;;;;;;18.70;4.82;;;9.70;99.90;;;;;;5188574;27;20589;-74
2024/01/03 12:11:14;;;;;;;21.90;4.75;;;9.60;99.90;;;;;;5138480;27;20034;-74
2024/01/03 12:13:40;;;;;;;16.27;4.00;;;9.50;99.90;;;;;;5154203;27;20056;-73
2024/01/03 12:16:06;;;;;;;18.63;4.30;;;9.50;99.90;;;;;;5075825;27;2128155;-74
2024/01/03 12:18:32;;;;;;;21.35;4.15;;;9.50;99.90;;;;;;5159400;27;20132;-74
2024/01/03 12:21:10;;;;;;;16.70;3.95;;;9.40;99.90;;;;;;5144941;27;20070;-74
2024/01/03 12:23:36;;;;;;;18.85;3.83;;;9.40;99.90;;;;;;5127699;27;20054;-73
2024/01/03 12:26:09;;;;;;;19.58;3.92;;;9.30;99.90;;;;;;5153180;27;20041;-75
2024/01/03 12:28:35;;;;;;;21.52;4.95;;;9.30;99.90;;;;;;5151628;27;20054;-74
2024/01/03 12:31:01;;;;;;;18.75;4.00;;;9.30;99.90;;;;;;5151867;27;20039;-74
2024/01/03 12:33:26;;;;;;;19.35;4.32;;;9.30;99.90;;;;;;5133855;27;20043;-74
2024/01/03 12:35:53;;;;;;;17.85;4.25;;;9.30;99.90;;;;;;5140393;27;20098;-74
2024/01/03 12:38:22;;;;;;;24.17;5.45;;;9.30;99.90;;;;;;5137642;27;20050;-74
2024/01/03 12:40:48;;;;;;;19.42;4.38;;;9.30;99.90;;;;;;5146507;27;20116;-74
2024/01/03 12:43:14;;;;;;;18.65;4.22;;;9.30;99.90;;;;;;5151356;27;20472;-74
2024/01/03 12:45:40;;;;;;;26.75;5.60;;;9.40;99.90;;;;;;5145038;27;20493;-74
2024/01/03 12:48:06;;;;;;;24.50;4.10;;;9.40;99.90;;;;;;5138091;27;20041;-74
2024/01/03 12:50:32;;;;;;;20.17;3.95;;;9.40;99.90;;;;;;5145379;27;20132;-74